Aidamar — ICSJ — position and weather

sailwx.info

Track history (hours):
 
Tides and Currents Weather Stations Pressure Air Temp Water Temp Dewpoint Dewpoint Depression Visibility Wind Speed Wind Dir Waves Ship Positions

Aidamar

Last reported at 2018-Apr-20 22:19 UTC. Time now 2018-Apr-21 15:43 UTC.
Position N 17°29' W 062°49'.

Length 253 m; draft 7.3 m.

Type: Passenger vessel. MMSI: 247312900.

Date/timePositionNaut miles runAvg speedWind from/ knotsBaromVisibWave heightAir tempDewpointWater temp
2018-Apr-20 22:19N 17°29' W 062°49'15 1.4
2018-Apr-20 11:22N 17°15' W 062°43'4 8.5
2018-Apr-20 10:57N 17°12' W 062°43'811.9
2018-Apr-20 10:16N 17°04' W 062°41'413.7
2018-Apr-20 09:56N 16°60' W 062°40'614.2
2018-Apr-20 09:29N 16°54' W 062°37'714.2
2018-Apr-20 09:00N 16°48' W 062°33'714.2
2018-Apr-20 08:30N 16°42' W 062°30'1414.3
2018-Apr-20 07:34N 16°30' W 062°23'114.0
2018-Apr-20 07:30N 16°29' W 062°22'13517.1
2018-Apr-19 23:37N 14°36' W 061°06'111.6
2018-Apr-19 23:30N 14°36' W 061°05'1 0.0
2018-Apr-19 11:00N 14°35' W 061°05'  
2018-Apr-16 03:07N 16°54' W 062°27'113.2
2018-Apr-16 03:00N 16°55' W 062°26'710.9
2018-Apr-16 02:22N 17°01' W 062°22'3 6.7
2018-Apr-16 01:59N 17°03' W 062°20'3 6.4
2018-Apr-16 01:30N 17°04' W 062°18'4 7.5
2018-Apr-16 01:01N 17°05' W 062°14'4 7.5
2018-Apr-16 00:30N 17°06' W 062°10'4 7.4
2018-Apr-16 00:00N 17°07' W 062°07'4 7.6
2018-Apr-15 23:30N 17°08' W 062°03'4 7.3
2018-Apr-15 23:01N 17°09' W 061°59'3 6.9
2018-Apr-15 22:30N 17°09' W 061°55'4 8.0
2018-Apr-15 22:00N 17°07' W 061°51'1 1.0
2018-Apr-15 21:29N 17°07' W 061°51'0 0.0
2018-Apr-15 20:59N 17°07' W 061°51'0 0.0
2018-Apr-15 20:29N 17°07' W 061°51'0 0.0
2018-Apr-15 19:59N 17°07' W 061°51'0 0.0
2018-Apr-15 19:29N 17°07' W 061°51'0 0.0
2018-Apr-15 18:59N 17°07' W 061°51'0 0.0
2018-Apr-15 18:29N 17°07' W 061°51'0 0.0
2018-Apr-15 17:59N 17°07' W 061°51'0 0.0
2018-Apr-15 17:29N 17°07' W 061°51'0 0.0
2018-Apr-15 16:59N 17°07' W 061°51'0 0.0
2018-Apr-15 16:29N 17°07' W 061°51'0 0.0
2018-Apr-15 15:59N 17°07' W 061°51'0 0.0
2018-Apr-15 15:29N 17°07' W 061°51'0 0.0
2018-Apr-15 14:59N 17°07' W 061°51'0 0.0
2018-Apr-15 14:29N 17°07' W 061°51'0 0.0
2018-Apr-15 13:59N 17°07' W 061°51'0 0.0
2018-Apr-15 13:29N 17°07' W 061°51'0 0.0
2018-Apr-15 12:59N 17°07' W 061°51'0 0.0
2018-Apr-15 12:29N 17°07' W 061°51'0 0.0
2018-Apr-15 12:00N 17°07' W 061°51'0 0.0
2018-Apr-15 11:30N 17°07' W 061°51'0 0.4
2018-Apr-15 11:00N 17°07' W 061°51'5 9.4
2018-Apr-15 10:30N 17°09' W 061°56'611.6
2018-Apr-15 10:00N 17°04' W 061°58'713.8
2018-Apr-15 09:30N 16°57' W 061°57'714.4
2018-Apr-15 09:00N 16°50' W 061°55'714.4
2018-Apr-15 08:30N 16°42' W 061°54'714.5
2018-Apr-15 08:00N 16°35' W 061°55'714.2
2018-Apr-15 07:30N 16°28' W 061°54'713.8
2018-Apr-15 07:00N 16°21' W 061°55'3 6.7
2018-Apr-15 06:29N 16°18' W 061°55'3 6.2
2018-Apr-15 06:00N 16°15' W 061°55'3 6.1
2018-Apr-15 05:30N 16°12' W 061°55'3 6.1
2018-Apr-15 04:57N 16°08' W 061°54'13 6.5
2018-Apr-15 02:57N 15°57' W 061°49'20 5.2
2018-Apr-14 23:04N 16°07' W 061°31'1 5.6
2018-Apr-14 22:51N 16°08' W 061°31'3 7.7
2018-Apr-14 22:30N 16°10' W 061°33'4 0.4
2018-Apr-14 11:27N 16°14' W 061°32'2 4.7
2018-Apr-14 11:00N 16°12' W 061°32'3 6.8
2018-Apr-14 10:30N 16°09' W 061°30'2012.3
2018-Apr-14 08:54N 15°54' W 061°43'612.3
2018-Apr-14 08:27N 15°54' W 061°49'2314.8
2018-Apr-14 06:52N 16°12' W 062°04'514.3
2018-Apr-14 06:31N 16°17' W 062°07'714.0
2018-Apr-14 05:59N 16°23' W 062°12'713.8
2018-Apr-14 05:29N 16°28' W 062°16'613.3
2018-Apr-14 05:00N 16°33' W 062°20'713.8
2018-Apr-14 04:30N 16°39' W 062°24'714.3
2018-Apr-14 04:00N 16°45' W 062°29'814.4
2018-Apr-14 03:29N 16°51' W 062°33'510.3
2018-Apr-14 02:59N 16°55' W 062°36'3 6.5
2018-Apr-14 02:30N 16°57' W 062°38'3 6.4
2018-Apr-14 02:01N 16°60' W 062°40'42 3.5
2018-Apr-13 13:58N 17°12' W 063°22'  
Track history (hours):
 
Tides and Currents Weather Stations Pressure Air Temp Water Temp Dewpoint Dewpoint Depression Visibility Wind Speed Wind Dir Waves Ship Positions

Aidamar

Last reported at 2018-Apr-20 22:19 UTC. Time now 2018-Apr-21 15:43 UTC.
Position N 17°29' W 062°49'.

Length 253 m; draft 7.3 m.

Type: Passenger vessel. MMSI: 247312900.

Date/timePositionNaut miles runAvg speedWind from/ knotsBaromVisibWave heightAir tempDewpointWater temp
2018-Apr-20 22:19N 17°29' W 062°49'15 1.4
2018-Apr-20 11:22N 17°15' W 062°43'4 8.5
2018-Apr-20 10:57N 17°12' W 062°43'811.9
2018-Apr-20 10:16N 17°04' W 062°41'413.7
2018-Apr-20 09:56N 16°60' W 062°40'614.2
2018-Apr-20 09:29N 16°54' W 062°37'714.2
2018-Apr-20 09:00N 16°48' W 062°33'714.2
2018-Apr-20 08:30N 16°42' W 062°30'1414.3
2018-Apr-20 07:34N 16°30' W 062°23'114.0
2018-Apr-20 07:30N 16°29' W 062°22'13517.1
2018-Apr-19 23:37N 14°36' W 061°06'111.6
2018-Apr-19 23:30N 14°36' W 061°05'1 0.0
2018-Apr-19 11:00N 14°35' W 061°05'  
2018-Apr-16 03:07N 16°54' W 062°27'113.2
2018-Apr-16 03:00N 16°55' W 062°26'710.9
2018-Apr-16 02:22N 17°01' W 062°22'3 6.7
2018-Apr-16 01:59N 17°03' W 062°20'3 6.4
2018-Apr-16 01:30N 17°04' W 062°18'4 7.5
2018-Apr-16 01:01N 17°05' W 062°14'4 7.5
2018-Apr-16 00:30N 17°06' W 062°10'4 7.4
2018-Apr-16 00:00N 17°07' W 062°07'4 7.6
2018-Apr-15 23:30N 17°08' W 062°03'4 7.3
2018-Apr-15 23:01N 17°09' W 061°59'3 6.9
2018-Apr-15 22:30N 17°09' W 061°55'4 8.0
2018-Apr-15 22:00N 17°07' W 061°51'1 1.0
2018-Apr-15 21:29N 17°07' W 061°51'0 0.0
2018-Apr-15 20:59N 17°07' W 061°51'0 0.0
2018-Apr-15 20:29N 17°07' W 061°51'0 0.0
2018-Apr-15 19:59N 17°07' W 061°51'0 0.0
2018-Apr-15 19:29N 17°07' W 061°51'0 0.0
2018-Apr-15 18:59N 17°07' W 061°51'0 0.0
2018-Apr-15 18:29N 17°07' W 061°51'0 0.0
2018-Apr-15 17:59N 17°07' W 061°51'0 0.0
2018-Apr-15 17:29N 17°07' W 061°51'0 0.0
2018-Apr-15 16:59N 17°07' W 061°51'0 0.0
2018-Apr-15 16:29N 17°07' W 061°51'0 0.0
2018-Apr-15 15:59N 17°07' W 061°51'0 0.0
2018-Apr-15 15:29N 17°07' W 061°51'0 0.0
2018-Apr-15 14:59N 17°07' W 061°51'0 0.0
2018-Apr-15 14:29N 17°07' W 061°51'0 0.0
2018-Apr-15 13:59N 17°07' W 061°51'0 0.0
2018-Apr-15 13:29N 17°07' W 061°51'0 0.0
2018-Apr-15 12:59N 17°07' W 061°51'0 0.0
2018-Apr-15 12:29N 17°07' W 061°51'0 0.0
2018-Apr-15 12:00N 17°07' W 061°51'0 0.0
2018-Apr-15 11:30N 17°07' W 061°51'0 0.4
2018-Apr-15 11:00N 17°07' W 061°51'5 9.4
2018-Apr-15 10:30N 17°09' W 061°56'611.6
2018-Apr-15 10:00N 17°04' W 061°58'713.8
2018-Apr-15 09:30N 16°57' W 061°57'714.4
2018-Apr-15 09:00N 16°50' W 061°55'714.4
2018-Apr-15 08:30N 16°42' W 061°54'714.5
2018-Apr-15 08:00N 16°35' W 061°55'714.2
2018-Apr-15 07:30N 16°28' W 061°54'713.8
2018-Apr-15 07:00N 16°21' W 061°55'3 6.7
2018-Apr-15 06:29N 16°18' W 061°55'3 6.2
2018-Apr-15 06:00N 16°15' W 061°55'3 6.1
2018-Apr-15 05:30N 16°12' W 061°55'3 6.1
2018-Apr-15 04:57N 16°08' W 061°54'13 6.5
2018-Apr-15 02:57N 15°57' W 061°49'20 5.2
2018-Apr-14 23:04N 16°07' W 061°31'1 5.6
2018-Apr-14 22:51N 16°08' W 061°31'3 7.7
2018-Apr-14 22:30N 16°10' W 061°33'4 0.4
2018-Apr-14 11:27N 16°14' W 061°32'2 4.7
2018-Apr-14 11:00N 16°12' W 061°32'3 6.8
2018-Apr-14 10:30N 16°09' W 061°30'2012.3
2018-Apr-14 08:54N 15°54' W 061°43'612.3
2018-Apr-14 08:27N 15°54' W 061°49'2314.8
2018-Apr-14 06:52N 16°12' W 062°04'514.3
2018-Apr-14 06:31N 16°17' W 062°07'714.0
2018-Apr-14 05:59N 16°23' W 062°12'713.8
2018-Apr-14 05:29N 16°28' W 062°16'613.3
2018-Apr-14 05:00N 16°33' W 062°20'713.8
2018-Apr-14 04:30N 16°39' W 062°24'714.3
2018-Apr-14 04:00N 16°45' W 062°29'814.4
2018-Apr-14 03:29N 16°51' W 062°33'510.3
2018-Apr-14 02:59N 16°55' W 062°36'3 6.5
2018-Apr-14 02:30N 16°57' W 062°38'3 6.4
2018-Apr-14 02:01N 16°60' W 062°40'42 3.5
2018-Apr-13 13:58N 17°12' W 063°22'  

Dump ship's entire track history